Time;durP1;ratioP1;P1;durP2;ratioP2;P2;SDS_P1;SDS_P2;PMS_P1;PMS_P2;Temp;Humidity;BMP_temperature;BMP_pressure;BME280_temperature;BME280_humidity;BME280_pressure;Samples;Min_cycle;Max_cycle;Signal;HPM_P1;HPM_P2
2022/01/31 00:01:03;;;;;;;10.45;4.38;;;3.10;99.90;;;;;;5064946;28;20181;-65
2022/01/31 00:03:30;;;;;;;6.60;4.13;;;2.70;99.90;;;;;;5066269;28;20222;-66
2022/01/31 00:05:56;;;;;;;6.95;4.40;;;2.80;99.90;;;;;;5061833;28;20185;-65
2022/01/31 00:08:24;;;;;;;7.90;4.30;;;2.80;99.90;;;;;;5042252;28;20197;-68
2022/01/31 00:10:50;;;;;;;10.38;5.75;;;2.80;99.90;;;;;;5055293;28;20201;-67
2022/01/31 00:13:24;;;;;;;10.25;4.93;;;2.90;99.90;;;;;;5062570;28;20209;-66
2022/01/31 00:15:54;;;;;;;7.70;4.43;;;2.80;99.90;;;;;;5067148;28;20493;-66
2022/01/31 00:18:20;;;;;;;8.45;5.15;;;2.80;99.90;;;;;;5063188;28;20212;-67
2022/01/31 00:20:46;;;;;;;11.57;4.70;;;2.90;99.90;;;;;;5061918;28;20216;-65
2022/01/31 00:23:12;;;;;;;8.20;5.17;;;2.40;99.90;;;;;;5065614;28;20443;-66
2022/01/31 00:25:38;;;;;;;7.38;4.25;;;2.90;99.90;;;;;;5063058;28;20192;-66
2022/01/31 00:28:04;;;;;;;6.27;4.10;;;3.10;99.90;;;;;;5063655;28;20274;-66
2022/01/31 00:30:29;;;;;;;6.97;4.53;;;2.60;99.90;;;;;;5075125;28;20561;-66
2022/01/31 00:32:55;;;;;;;8.00;4.53;;;3.00;99.90;;;;;;5065054;28;20178;-66
2022/01/31 00:35:21;;;;;;;7.00;4.33;;;2.90;99.90;;;;;;5068195;28;20513;-67
2022/01/31 00:37:47;;;;;;;5.47;4.73;;;3.20;99.90;;;;;;5060593;28;20478;-66
2022/01/31 00:40:13;;;;;;;9.52;5.05;;;3.30;99.90;;;;;;5062155;28;20186;-66
2022/01/31 00:42:39;;;;;;;7.87;4.87;;;3.20;99.90;;;;;;5066853;28;20200;-69
2022/01/31 00:47:45;;;;;;;9.23;5.28;;;3.00;99.90;;;;;;5049072;28;20185;-66
2022/01/31 00:50:12;;;;;;;6.85;4.00;;;3.10;99.90;;;;;;5059406;28;20205;-66
2022/01/31 00:52:40;;;;;;;7.07;3.90;;;3.20;99.90;;;;;;5067909;28;20643;-66
2022/01/31 00:55:08;;;;;;;10.90;4.75;;;3.00;99.90;;;;;;5066890;28;20638;-66
2022/01/31 00:57:34;;;;;;;10.35;4.70;;;3.10;99.90;;;;;;5050118;28;20218;-67
2022/01/31 00:59:59;;;;;;;13.25;5.38;;;3.50;99.90;;;;;;5068003;28;20237;-66
2022/01/31 01:02:26;;;;;;;12.90;4.10;;;3.70;99.90;;;;;;5061209;28;20181;-66
2022/01/31 01:04:52;;;;;;;7.38;4.53;;;2.70;99.90;;;;;;5069320;28;20688;-66
2022/01/31 01:07:21;;;;;;;7.22;4.32;;;3.50;99.90;;;;;;5052607;28;20287;-67
2022/01/31 01:09:47;;;;;;;6.50;4.80;;;3.40;99.90;;;;;;5064479;28;20202;-67
2022/01/31 01:12:15;;;;;;;10.82;4.60;;;3.50;99.90;;;;;;5068939;28;20709;-66
2022/01/31 01:14:42;;;;;;;5.53;3.78;;;3.00;99.90;;;;;;5062654;28;20232;-66
2022/01/31 01:17:07;;;;;;;7.03;3.80;;;3.10;99.90;;;;;;5060804;28;20303;-67
2022/01/31 01:19:33;;;;;;;7.73;4.63;;;3.70;99.90;;;;;;5063082;28;20297;-66
2022/01/31 01:21:59;;;;;;;6.87;4.07;;;2.80;99.90;;;;;;5062155;28;20228;-66
2022/01/31 01:24:25;;;;;;;6.22;4.07;;;3.40;99.90;;;;;;5062673;28;20544;-66
2022/01/31 01:26:51;;;;;;;6.80;4.37;;;3.30;99.90;;;;;;5051874;28;20239;-66
2022/01/31 01:29:17;;;;;;;8.70;4.00;;;3.70;99.90;;;;;;5065619;28;20177;-66
2022/01/31 01:31:46;;;;;;;12.77;4.70;;;3.10;99.90;;;;;;5056679;28;20694;-67
2022/01/31 01:34:13;;;;;;;7.50;4.10;;;3.00;99.90;;;;;;5063960;28;20459;-65
2022/01/31 01:36:38;;;;;;;10.35;4.95;;;3.40;99.90;;;;;;5061453;28;21267;-67
2022/01/31 01:39:05;;;;;;;8.30;4.90;;;3.70;99.90;;;;;;5068165;28;20180;-66
2022/01/31 01:41:31;;;;;;;8.23;4.57;;;3.40;99.90;;;;;;5063620;28;20981;-65
2022/01/31 01:43:57;;;;;;;8.43;4.53;;;3.80;99.90;;;;;;5063860;28;20201;-65
2022/01/31 01:46:22;;;;;;;10.47;4.30;;;3.60;99.90;;;;;;5056324;28;20479;-66
2022/01/31 01:48:48;;;;;;;7.73;4.87;;;3.80;99.90;;;;;;5052963;28;20647;-66
2022/01/31 01:51:14;;;;;;;13.00;5.43;;;3.40;99.90;;;;;;5060545;28;20296;-66
2022/01/31 01:53:40;;;;;;;8.88;4.60;;;3.80;99.90;;;;;;5066725;28;20665;-65
2022/01/31 01:56:06;;;;;;;8.73;4.77;;;4.00;99.90;;;;;;5068518;28;20177;-66
2022/01/31 01:58:39;;;;;;;7.05;4.43;;;3.90;99.90;;;;;;5055515;28;20464;-66
2022/01/31 02:01:05;;;;;;;7.68;5.35;;;4.10;99.90;;;;;;5061779;28;20250;-66
2022/01/31 02:03:33;;;;;;;6.65;4.50;;;3.30;99.90;;;;;;5049583;28;20205;-65
2022/01/31 02:05:59;;;;;;;9.13;4.82;;;4.20;99.90;;;;;;5063925;28;20181;-65
2022/01/31 02:08:27;;;;;;;7.47;4.18;;;3.70;99.90;;;;;;5054906;28;20268;-65
2022/01/31 02:10:54;;;;;;;7.28;4.22;;;3.90;99.90;;;;;;5058678;28;20205;-66
2022/01/31 02:13:20;;;;;;;8.63;4.10;;;3.80;99.90;;;;;;5063927;28;20717;-66
2022/01/31 02:15:51;;;;;;;8.90;4.82;;;3.80;99.90;;;;;;5065383;28;20236;-65
2022/01/31 02:18:20;;;;;;;7.18;3.83;;;3.80;99.90;;;;;;5058020;28;20196;-66
2022/01/31 02:20:46;;;;;;;5.63;4.15;;;3.90;99.90;;;;;;5064879;28;20639;-65
2022/01/31 02:23:14;;;;;;;11.90;4.70;;;4.10;99.90;;;;;;5067224;28;20599;-66
2022/01/31 02:25:57;;;;;;;7.85;4.00;;;3.80;99.90;;;;;;5061611;28;20239;-66
2022/01/31 02:28:25;;;;;;;6.47;3.90;;;4.20;99.90;;;;;;5056350;28;20185;-64
2022/01/31 02:30:52;;;;;;;8.50;4.18;;;4.00;99.90;;;;;;5066116;28;20240;-64
2022/01/31 02:33:18;;;;;;;7.93;4.43;;;4.10;99.90;;;;;;5062291;28;20204;-64
2022/01/31 02:35:49;;;;;;;6.93;4.25;;;4.20;99.90;;;;;;5071347;28;20190;-64
2022/01/31 02:38:15;;;;;;;8.70;4.45;;;4.10;99.90;;;;;;5069738;28;20552;-64
2022/01/31 02:40:40;;;;;;;6.13;4.53;;;4.00;99.90;;;;;;5069904;28;20274;-64
2022/01/31 02:43:06;;;;;;;7.53;4.33;;;4.30;99.90;;;;;;5063055;28;20282;-64
2022/01/31 02:45:32;;;;;;;8.37;5.20;;;4.40;99.90;;;;;;5069933;28;20472;-64
2022/01/31 02:48:00;;;;;;;6.22;3.97;;;3.90;99.90;;;;;;5053340;28;20658;-64
2022/01/31 02:50:26;;;;;;;15.02;5.47;;;4.10;99.90;;;;;;5070227;28;20223;-64
2022/01/31 02:53:09;;;;;;;8.45;4.68;;;3.30;99.90;;;;;;5068446;28;20260;-64
2022/01/31 02:55:35;;;;;;;6.53;4.53;;;4.00;99.90;;;;;;5063509;28;20554;-64
2022/01/31 02:58:00;;;;;;;10.20;4.70;;;4.00;99.90;;;;;;5061384;28;20189;-64
2022/01/31 03:00:26;;;;;;;8.40;4.63;;;4.10;99.90;;;;;;5068928;28;20213;-64
2022/01/31 03:02:52;;;;;;;9.47;4.40;;;4.10;99.90;;;;;;5068243;28;20189;-64
2022/01/31 03:05:17;;;;;;;7.30;4.20;;;4.20;99.90;;;;;;5068674;28;20459;-64
2022/01/31 03:07:43;;;;;;;8.13;4.20;;;4.00;99.90;;;;;;5066768;28;20196;-64
2022/01/31 03:10:09;;;;;;;11.50;5.43;;;3.60;99.90;;;;;;5069376;28;20321;-63
2022/01/31 03:12:34;;;;;;;11.45;5.03;;;4.20;99.90;;;;;;5071431;28;20621;-63
2022/01/31 03:15:00;;;;;;;7.13;3.70;;;3.80;99.90;;;;;;5060015;28;20227;-64
2022/01/31 03:17:26;;;;;;;8.87;4.70;;;4.50;99.90;;;;;;5056992;28;20265;-63
2022/01/31 03:19:54;;;;;;;8.43;4.67;;;4.30;99.90;;;;;;5073904;28;20216;-63
2022/01/31 03:22:20;;;;;;;7.72;4.30;;;4.20;99.90;;;;;;5068938;28;20213;-64
2022/01/31 03:24:48;;;;;;;7.93;3.70;;;4.50;99.90;;;;;;5070586;28;20213;-63
2022/01/31 03:27:14;;;;;;;6.18;3.97;;;4.40;99.90;;;;;;5055788;28;20181;-63
2022/01/31 03:29:39;;;;;;;5.90;3.90;;;4.20;99.90;;;;;;5068500;28;20192;-64
2022/01/31 03:32:05;;;;;;;8.13;4.20;;;4.20;99.90;;;;;;5060270;28;20188;-64
2022/01/31 03:34:31;;;;;;;7.43;4.10;;;4.50;99.90;;;;;;5060675;28;20739;-64
2022/01/31 03:36:57;;;;;;;7.53;4.20;;;3.90;99.90;;;;;;5064684;28;20178;-64
2022/01/31 03:39:22;;;;;;;8.63;4.57;;;4.50;99.90;;;;;;5070956;28;20184;-64
2022/01/31 03:41:48;;;;;;;13.30;4.30;;;4.50;99.90;;;;;;5067623;28;20222;-64
2022/01/31 03:44:14;;;;;;;10.70;4.90;;;4.30;99.90;;;;;;5061864;28;20601;-63
2022/01/31 03:46:39;;;;;;;6.47;3.70;;;4.40;99.90;;;;;;5060266;28;20340;-63
2022/01/31 03:49:05;;;;;;;8.67;5.10;;;4.50;99.90;;;;;;5065548;28;20250;-64
2022/01/31 03:51:31;;;;;;;5.40;3.90;;;4.10;99.90;;;;;;5066107;28;20790;-63
2022/01/31 03:53:57;;;;;;;9.60;4.70;;;4.80;99.90;;;;;;5068184;28;20832;-64
2022/01/31 03:56:23;;;;;;;6.55;4.30;;;4.40;99.90;;;;;;5055961;28;20448;-65
2022/01/31 03:58:48;;;;;;;6.60;4.17;;;4.60;99.90;;;;;;5063028;28;20177;-64
2022/01/31 04:01:14;;;;;;;8.27;4.50;;;4.50;99.90;;;;;;5069341;28;20187;-64
2022/01/31 04:03:40;;;;;;;11.95;4.93;;;4.00;99.90;;;;;;5067050;28;20213;-64
2022/01/31 04:06:06;;;;;;;7.83;4.13;;;4.80;99.90;;;;;;5069585;28;20638;-63
2022/01/31 04:08:31;;;;;;;12.17;3.90;;;4.70;99.90;;;;;;5059624;28;20269;-64
2022/01/31 04:10:57;;;;;;;12.10;4.33;;;4.50;99.90;;;;;;5070192;28;20205;-64
2022/01/31 04:13:23;;;;;;;7.00;3.80;;;4.70;99.90;;;;;;5068988;28;20230;-64
2022/01/31 04:15:49;;;;;;;8.55;4.60;;;4.70;99.90;;;;;;5055963;28;20198;-64
2022/01/31 04:18:15;;;;;;;5.90;4.33;;;4.80;99.90;;;;;;5052975;28;20610;-64
2022/01/31 04:20:41;;;;;;;6.10;3.65;;;4.70;99.90;;;;;;5070676;28;20271;-64
2022/01/31 04:23:11;;;;;;;6.70;3.83;;;4.70;99.90;;;;;;5068376;28;20235;-63
2022/01/31 04:28:23;;;;;;;4.50;4.10;;;4.80;99.90;;;;;;5053621;28;20186;-63
2022/01/31 04:31:00;;;;;;;8.43;5.20;;;4.80;99.90;;;;;;5068705;28;20210;-64
2022/01/31 04:33:27;;;;;;;9.27;3.80;;;4.90;99.90;;;;;;5062706;28;20209;-63
2022/01/31 04:35:53;;;;;;;8.45;3.72;;;4.90;99.90;;;;;;5072636;28;20588;-63
2022/01/31 04:38:20;;;;;;;6.35;3.10;;;5.10;99.90;;;;;;5062626;28;20269;-63
2022/01/31 04:40:46;;;;;;;8.77;4.07;;;4.90;99.90;;;;;;5068735;28;20215;-63
2022/01/31 04:43:12;;;;;;;6.50;3.67;;;4.90;99.90;;;;;;5072375;28;20221;-63
2022/01/31 04:45:38;;;;;;;7.80;3.53;;;4.90;99.90;;;;;;5069302;28;20181;-63
2022/01/31 04:48:04;;;;;;;10.88;3.67;;;5.10;99.90;;;;;;5047140;28;20448;-64
2022/01/31 04:50:30;;;;;;;10.18;3.10;;;5.10;99.90;;;;;;5067887;28;20214;-64
2022/01/31 04:52:55;;;;;;;8.63;3.83;;;5.30;99.90;;;;;;5067555;28;20209;-64
2022/01/31 04:55:21;;;;;;;5.50;3.30;;;5.10;99.90;;;;;;5057425;28;20253;-64
2022/01/31 04:57:47;;;;;;;7.43;4.03;;;5.10;99.90;;;;;;5058299;28;20199;-64
2022/01/31 05:00:13;;;;;;;8.80;4.03;;;5.30;99.90;;;;;;5064930;28;21086;-64
2022/01/31 05:02:39;;;;;;;8.63;4.05;;;5.20;99.90;;;;;;5055967;28;20288;-64
2022/01/31 05:05:05;;;;;;;6.10;3.60;;;5.20;99.90;;;;;;5066239;28;20292;-64
2022/01/31 05:07:32;;;;;;;6.82;3.70;;;5.30;99.90;;;;;;5054145;28;20550;-63
2022/01/31 05:09:58;;;;;;;6.13;3.90;;;4.90;99.90;;;;;;5067683;28;20313;-64
2022/01/31 05:12:25;;;;;;;6.67;3.30;;;5.20;99.90;;;;;;5064248;28;20315;-63
2022/01/31 05:14:51;;;;;;;5.50;4.05;;;4.90;99.90;;;;;;5068536;28;20496;-64
2022/01/31 05:17:16;;;;;;;7.93;4.00;;;5.30;99.90;;;;;;5055349;28;20194;-64
2022/01/31 05:19:42;;;;;;;7.57;3.67;;;5.10;99.90;;;;;;5071314;28;20264;-64
2022/01/31 05:22:07;;;;;;;11.77;4.33;;;5.10;99.90;;;;;;5070133;28;20250;-63
2022/01/31 05:24:33;;;;;;;6.23;3.83;;;5.50;99.90;;;;;;5063644;28;20225;-63
2022/01/31 05:26:59;;;;;;;6.83;3.87;;;5.20;99.90;;;;;;5059073;28;20189;-63
2022/01/31 05:29:24;;;;;;;6.33;3.63;;;5.20;99.90;;;;;;5063310;28;20719;-64
2022/01/31 05:31:52;;;;;;;7.97;3.90;;;4.50;99.90;;;;;;5057203;28;20213;-64
2022/01/31 05:34:19;;;;;;;5.85;3.63;;;5.10;99.90;;;;;;5068196;28;20206;-64
2022/01/31 05:36:45;;;;;;;7.15;3.13;;;4.90;99.90;;;;;;5060257;28;20190;-64
2022/01/31 05:39:11;;;;;;;6.95;4.00;;;5.30;99.90;;;;;;5061007;28;20187;-64
2022/01/31 05:41:36;;;;;;;6.20;4.00;;;4.60;99.90;;;;;;5069592;28;20197;-64
2022/01/31 05:44:02;;;;;;;7.20;3.93;;;5.30;99.90;;;;;;5065802;28;20250;-64
2022/01/31 05:46:28;;;;;;;5.40;4.00;;;5.20;99.90;;;;;;5061362;28;20197;-64
2022/01/31 05:48:54;;;;;;;6.67;3.50;;;5.30;99.90;;;;;;5052044;28;20192;-64
2022/01/31 05:51:22;;;;;;;7.13;3.40;;;5.60;99.90;;;;;;5063776;28;20214;-64
2022/01/31 05:53:49;;;;;;;4.65;2.90;;;4.80;99.90;;;;;;5064923;28;20206;-64
2022/01/31 05:56:17;;;;;;;8.25;3.13;;;5.70;99.90;;;;;;5061044;28;20188;-64
2022/01/31 05:58:43;;;;;;;4.47;2.97;;;5.40;99.90;;;;;;5061520;28;20260;-64
2022/01/31 06:01:09;;;;;;;7.25;2.90;;;5.90;99.90;;;;;;5062844;28;20186;-64
2022/01/31 06:03:37;;;;;;;5.83;3.93;;;5.70;99.90;;;;;;5060936;28;20208;-64
2022/01/31 06:06:03;;;;;;;5.72;3.45;;;5.50;99.90;;;;;;5063903;28;20196;-64
2022/01/31 06:08:29;;;;;;;6.80;2.80;;;5.80;99.90;;;;;;5045671;28;20261;-63
2022/01/31 06:10:54;;;;;;;8.13;3.33;;;5.70;99.90;;;;;;5065556;28;20220;-64
2022/01/31 06:13:24;;;;;;;4.20;2.80;;;5.20;99.90;;;;;;5065270;28;20207;-63
2022/01/31 06:15:53;;;;;;;7.80;2.88;;;5.50;99.90;;;;;;5067061;28;20190;-64
2022/01/31 06:18:19;;;;;;;8.10;3.10;;;5.70;99.90;;;;;;5062699;28;20192;-63
2022/01/31 06:20:44;;;;;;;4.33;3.20;;;5.40;99.90;;;;;;5063529;28;20590;-63
2022/01/31 06:23:11;;;;;;;4.97;3.53;;;5.60;99.90;;;;;;5063710;28;20450;-64
2022/01/31 06:25:38;;;;;;;6.85;3.67;;;5.60;99.90;;;;;;5074755;28;20184;-64
2022/01/31 06:28:05;;;;;;;8.77;3.38;;;5.50;99.90;;;;;;5051264;28;20574;-64
2022/01/31 06:30:31;;;;;;;8.63;4.20;;;5.70;99.90;;;;;;5069569;28;20201;-64
2022/01/31 06:32:56;;;;;;;6.97;3.40;;;5.00;99.90;;;;;;5058497;28;20190;-64
2022/01/31 06:35:23;;;;;;;5.03;3.17;;;5.20;99.90;;;;;;5065949;28;20743;-64
2022/01/31 06:37:49;;;;;;;6.03;3.60;;;4.80;99.90;;;;;;5059074;28;20440;-64
2022/01/31 06:40:14;;;;;;;6.10;3.20;;;4.80;99.90;;;;;;5060179;28;20763;-64
2022/01/31 06:42:40;;;;;;;7.50;3.77;;;5.00;99.90;;;;;;5067722;28;20235;-61
2022/01/31 06:45:07;;;;;;;5.85;3.63;;;4.70;99.90;;;;;;5061967;28;20207;-63
2022/01/31 06:47:33;;;;;;;3.42;3.10;;;5.00;99.90;;;;;;5055670;28;20223;-63
2022/01/31 06:50:04;;;;;;;10.23;3.87;;;5.00;99.90;;;;;;5064668;28;20244;-63
2022/01/31 06:52:33;;;;;;;7.45;4.35;;;5.10;99.90;;;;;;5062993;28;20505;-64
2022/01/31 06:55:02;;;;;;;7.35;3.20;;;5.00;99.90;;;;;;5056131;28;20571;-63
2022/01/31 06:57:33;;;;;;;5.55;3.85;;;5.20;99.90;;;;;;5051811;28;20183;-63
2022/01/31 07:00:04;;;;;;;8.32;3.67;;;5.10;99.90;;;;;;5063386;28;20204;-63
2022/01/31 07:02:30;;;;;;;4.82;3.30;;;5.10;99.90;;;;;;5049882;28;20635;-63
2022/01/31 07:04:56;;;;;;;5.50;4.20;;;5.00;99.90;;;;;;5061569;28;20232;-63
2022/01/31 07:07:22;;;;;;;5.93;3.58;;;5.20;99.90;;;;;;5062359;28;20218;-63
2022/01/31 07:09:47;;;;;;;7.80;3.70;;;5.40;99.90;;;;;;5066487;28;20213;-63
2022/01/31 07:12:16;;;;;;;8.13;3.80;;;5.10;99.90;;;;;;5060691;28;20209;-63
2022/01/31 07:14:42;;;;;;;7.85;4.90;;;4.90;99.90;;;;;;5069765;28;20239;-59
2022/01/31 07:17:07;;;;;;;7.40;2.90;;;5.10;99.90;;;;;;5053314;28;20273;-59
2022/01/31 07:19:36;;;;;;;7.50;3.80;;;5.10;99.90;;;;;;5073517;28;20197;-59
2022/01/31 07:22:05;;;;;;;4.95;3.42;;;5.20;99.90;;;;;;5067201;28;20465;-60
2022/01/31 07:24:45;;;;;;;6.53;3.47;;;5.00;99.90;;;;;;5063796;28;20205;-58
2022/01/31 07:27:10;;;;;;;5.68;3.92;;;5.00;99.90;;;;;;5062078;28;20785;-59
2022/01/31 07:29:36;;;;;;;7.50;3.40;;;5.10;99.90;;;;;;5072214;28;20185;-59
2022/01/31 07:32:02;;;;;;;6.87;3.77;;;4.90;99.90;;;;;;5060120;28;20484;-60
2022/01/31 07:34:28;;;;;;;6.65;3.45;;;4.90;99.90;;;;;;5077231;28;20708;-61
2022/01/31 07:36:54;;;;;;;4.40;3.20;;;4.40;99.90;;;;;;5060916;28;20193;-64
2022/01/31 07:39:21;;;;;;;6.10;3.80;;;4.90;99.90;;;;;;5072130;28;20179;-64
2022/01/31 07:41:48;;;;;;;7.45;3.92;;;5.20;99.90;;;;;;5068804;28;20476;-68
2022/01/31 07:44:14;;;;;;;3.72;3.35;;;4.90;99.90;;;;;;5057845;28;20214;-65
2022/01/31 07:46:40;;;;;;;8.07;3.70;;;4.50;99.90;;;;;;5062617;28;20270;-65
2022/01/31 07:49:07;;;;;;;7.18;3.05;;;5.10;99.90;;;;;;5065335;28;20194;-73
2022/01/31 07:51:37;;;;;;;4.03;2.75;;;5.20;99.90;;;;;;5056795;28;20213;-63
2022/01/31 07:54:03;;;;;;;6.80;2.90;;;5.00;99.90;;;;;;5072177;28;20674;-64
2022/01/31 07:56:28;;;;;;;3.50;2.80;;;4.90;99.90;;;;;;5065948;28;20193;-65
2022/01/31 07:58:54;;;;;;;3.63;2.83;;;5.20;99.90;;;;;;5057061;28;20212;-67
2022/01/31 08:01:20;;;;;;;4.40;2.73;;;5.30;99.90;;;;;;5062948;28;20650;-62
2022/01/31 08:03:47;;;;;;;5.32;2.60;;;5.30;99.90;;;;;;5068679;28;20503;-62
2022/01/31 08:06:13;;;;;;;4.43;1.80;;;5.30;99.90;;;;;;5072939;28;20559;-63
2022/01/31 08:08:40;;;;;;;3.10;2.45;;;4.80;99.90;;;;;;5048262;28;20182;-61
2022/01/31 08:11:06;;;;;;;5.40;2.53;;;5.20;99.90;;;;;;5079416;28;20242;-64
2022/01/31 08:13:33;;;;;;;2.75;2.42;;;5.30;99.90;;;;;;5065921;28;20650;-66
2022/01/31 08:16:17;;;;;;;4.15;2.05;;;4.70;99.90;;;;;;5068986;28;20229;-66
2022/01/31 08:18:44;;;;;;;1.98;1.77;;;5.20;99.90;;;;;;5043220;28;20191;-62
2022/01/31 08:21:12;;;;;;;2.65;1.45;;;5.30;99.90;;;;;;5064402;28;20256;-62
2022/01/31 08:23:38;;;;;;;3.50;2.03;;;5.20;99.90;;;;;;5069782;28;20208;-62
2022/01/31 08:26:08;;;;;;;2.40;1.88;;;4.90;99.90;;;;;;5066376;28;20188;-62
2022/01/31 08:28:43;;;;;;;2.10;1.75;;;5.20;99.90;;;;;;5057432;28;20193;-62
2022/01/31 08:33:43;;;;;;;2.20;1.60;;;5.50;99.90;;;;;;5062967;28;20210;-62
2022/01/31 08:36:10;;;;;;;1.65;1.55;;;5.40;99.90;;;;;;5074370;28;20260;-62
2022/01/31 08:38:38;;;;;;;2.05;1.70;;;5.60;99.90;;;;;;5066015;28;20627;-62
2022/01/31 08:41:06;;;;;;;3.67;2.03;;;6.00;99.90;;;;;;5075534;28;20325;-62
2022/01/31 08:43:33;;;;;;;1.70;1.58;;;5.60;99.90;;;;;;5062450;28;20553;-61
2022/01/31 08:45:59;;;;;;;1.60;1.50;;;5.90;99.90;;;;;;5056969;28;20183;-62
2022/01/31 08:48:25;;;;;;;2.20;1.30;;;6.00;99.90;;;;;;5050264;28;20243;-61
2022/01/31 08:50:53;;;;;;;2.10;1.35;;;5.80;99.90;;;;;;5068591;28;20304;-59
2022/01/31 08:53:19;;;;;;;1.88;1.70;;;5.80;99.90;;;;;;5073064;28;20183;-63
2022/01/31 08:56:07;;;;;;;1.35;1.10;;;5.30;99.90;;;;;;5060667;28;20202;-61
2022/01/31 08:58:35;;;;;;;2.70;1.48;;;6.00;99.90;;;;;;5055260;28;20192;-64
2022/01/31 09:01:01;;;;;;;1.70;1.33;;;6.10;99.90;;;;;;5067758;28;20186;-61
2022/01/31 09:06:06;;;;;;;1.20;1.10;;;6.40;99.90;;;;;;5063293;28;20725;-59
2022/01/31 09:08:32;;;;;;;2.58;1.10;;;6.30;99.90;;;;;;5061832;28;20652;-61
2022/01/31 09:10:58;;;;;;;3.67;1.43;;;6.90;99.90;;;;;;5062944;28;20299;-60
2022/01/31 09:13:24;;;;;;;1.60;1.13;;;6.70;99.90;;;;;;5057871;28;20943;-58
2022/01/31 09:15:50;;;;;;;1.40;1.30;;;6.50;99.90;;;;;;5068079;28;20200;-62
2022/01/31 09:18:16;;;;;;;4.03;1.70;;;6.80;99.90;;;;;;5056412;28;20497;-60
2022/01/31 09:20:41;;;;;;;1.70;1.27;;;6.50;99.90;;;;;;5075007;28;20665;-59
2022/01/31 09:23:07;;;;;;;2.73;1.80;;;6.90;99.90;;;;;;5069586;28;20292;-59
2022/01/31 09:25:33;;;;;;;1.43;1.33;;;7.50;99.90;;;;;;5062043;28;20197;-61
2022/01/31 09:28:02;;;;;;;1.40;1.30;;;8.40;99.90;;;;;;5070729;28;20224;-59
2022/01/31 09:30:27;;;;;;;3.55;1.48;;;9.50;99.90;;;;;;5053601;28;20266;-59
2022/01/31 09:32:57;;;;;;;2.23;1.50;;;9.40;99.90;;;;;;5056453;28;20674;-60
2022/01/31 09:35:25;;;;;;;2.50;1.48;;;9.30;99.50;;;;;;5069481;28;20681;-59
2022/01/31 09:37:51;;;;;;;2.03;1.35;;;8.70;99.80;;;;;;5068341;28;20594;-60
2022/01/31 09:40:20;;;;;;;2.20;1.55;;;8.70;99.90;;;;;;5058391;28;20268;-58
2022/01/31 09:43:09;;;;;;;1.60;1.17;;;8.60;99.90;;;;;;5053276;28;20204;-59
2022/01/31 09:46:14;;;;;;;1.85;1.40;;;8.30;99.90;;;;;;5064908;28;20626;-58
2022/01/31 09:48:33;;;;;;;3.10;2.85;;;8.40;99.90;;;;;;5045000;28;20246;-61
2022/01/31 09:50:59;;;;;;;1.30;1.20;;;8.10;99.90;;;;;;5055749;28;20223;-59
2022/01/31 09:53:24;;;;;;;1.57;1.47;;;7.40;99.90;;;;;;5054295;28;20189;-61
2022/01/31 09:55:52;;;;;;;1.53;1.43;;;7.90;99.90;;;;;;5067772;28;20189;-70
2022/01/31 09:58:18;;;;;;;3.22;1.50;;;8.00;99.90;;;;;;5055696;28;20221;-70
2022/01/31 10:00:44;;;;;;;2.28;1.50;;;8.00;99.90;;;;;;5061962;28;20196;-68
2022/01/31 10:03:11;;;;;;;1.57;1.47;;;7.80;99.90;;;;;;5023051;22;20239;-80
2022/01/31 10:05:38;;;;;;;2.53;1.50;;;7.60;99.90;;;;;;5051644;28;20193;-81
2022/01/31 10:08:10;;;;;;;4.57;2.10;;;7.60;99.90;;;;;;5050397;28;20180;-82
2022/01/31 10:10:43;;;;;;;1.58;1.48;;;7.80;99.90;;;;;;5059934;28;20271;-84
2022/01/31 10:16:32;;;;;;;3.65;2.35;;;7.90;99.90;;;;;;5026934;28;20228;-82
2022/01/31 10:19:06;;;;;;;1.95;1.80;;;7.40;99.90;;;;;;5041697;28;20506;-86
2022/01/31 10:21:51;;;;;;;5.13;1.80;;;7.50;99.90;;;;;;5049040;28;20189;-83
2022/01/31 10:24:17;;;;;;;3.15;1.67;;;7.80;99.90;;;;;;5036557;28;20252;-79
2022/01/31 10:26:43;;;;;;;2.97;2.50;;;8.80;99.90;;;;;;5035376;28;20215;-83
2022/01/31 10:29:09;;;;;;;3.87;1.73;;;8.10;99.90;;;;;;5032809;28;20436;-83
2022/01/31 10:31:35;;;;;;;1.92;1.75;;;7.80;99.90;;;;;;5037222;28;20198;-82
2022/01/31 10:34:18;;;;;;;2.90;1.87;;;7.80;99.90;;;;;;5055657;28;20248;-83
2022/01/31 10:36:43;;;;;;;2.33;1.38;;;8.00;99.90;;;;;;5041009;28;20178;-84
2022/01/31 10:39:15;;;;;;;2.40;1.40;;;7.20;99.90;;;;;;5028086;28;20197;-83
2022/01/31 10:45:09;;;;;;;1.95;1.33;;;7.80;99.90;;;;;;5038828;28;20259;-90
2022/01/31 10:53:08;;;;;;;2.40;1.80;;;7.70;99.00;;;;;;5047518;28;20750;-84
2022/01/31 10:55:34;;;;;;;1.75;1.50;;;7.80;98.80;;;;;;5034896;28;20190;-86
2022/01/31 10:58:09;;;;;;;2.87;2.30;;;8.10;98.90;;;;;;5035206;28;20541;-84
2022/01/31 11:00:37;;;;;;;3.70;1.92;;;8.10;98.40;;;;;;5053827;28;20177;-85
2022/01/31 11:03:40;;;;;;;2.95;1.60;;;8.30;98.60;;;;;;5041194;28;20251;-85
2022/01/31 11:06:10;;;;;;;2.92;2.17;;;8.20;98.40;;;;;;5057954;28;20205;-85
2022/01/31 11:08:36;;;;;;;2.55;1.50;;;8.10;98.40;;;;;;5048413;28;20240;-82
2022/01/31 11:11:02;;;;;;;1.90;1.50;;;8.00;97.70;;;;;;5055688;28;20201;-84
2022/01/31 11:13:31;;;;;;;2.85;1.88;;;8.00;98.10;;;;;;5055196;28;20943;-84
2022/01/31 11:15:57;;;;;;;3.45;1.58;;;7.90;98.40;;;;;;5049827;28;20190;-86
2022/01/31 11:18:25;;;;;;;1.70;1.52;;;8.10;98.50;;;;;;5054625;28;20185;-85
2022/01/31 11:20:58;;;;;;;2.33;1.95;;;8.40;98.60;;;;;;5047603;28;20181;-87
2022/01/31 11:23:27;;;;;;;2.85;1.77;;;8.30;98.30;;;;;;5042924;28;20612;-82
2022/01/31 11:25:56;;;;;;;2.78;1.70;;;8.50;98.10;;;;;;5044186;28;20194;-83
2022/01/31 11:28:23;;;;;;;2.78;1.58;;;8.80;98.20;;;;;;5045099;28;20193;-84
2022/01/31 11:30:50;;;;;;;4.65;2.20;;;8.70;97.60;;;;;;5063702;28;20200;-85
2022/01/31 11:33:18;;;;;;;1.88;1.50;;;8.60;97.10;;;;;;5043687;28;20205;-83
2022/01/31 11:35:43;;;;;;;4.45;3.17;;;8.90;97.90;;;;;;5055259;28;20609;-85
2022/01/31 11:38:09;;;;;;;3.50;1.70;;;8.30;97.70;;;;;;5050916;28;20181;-89
2022/01/31 11:40:35;;;;;;;7.05;3.80;;;8.70;98.30;;;;;;5057548;28;20223;-87
2022/01/31 11:43:02;;;;;;;4.70;2.40;;;8.60;98.80;;;;;;5057739;28;20225;-86
2022/01/31 11:45:30;;;;;;;1.85;1.40;;;8.00;99.10;;;;;;5064588;28;20179;-86
2022/01/31 11:48:03;;;;;;;3.38;2.17;;;7.90;99.40;;;;;;5051527;28;20185;-85
2022/01/31 11:50:29;;;;;;;3.47;1.40;;;7.70;99.60;;;;;;5052923;28;20292;-88
2022/01/31 11:52:58;;;;;;;2.70;1.70;;;7.60;99.90;;;;;;5052815;28;20271;-88
2022/01/31 11:55:29;;;;;;;2.60;1.42;;;7.70;99.90;;;;;;5062162;28;20194;-87
2022/01/31 11:57:57;;;;;;;1.92;1.50;;;7.70;99.90;;;;;;5046220;28;20178;-88
2022/01/31 12:00:29;;;;;;;2.25;1.50;;;8.10;99.90;;;;;;5064327;28;20182;-87
2022/01/31 12:03:01;;;;;;;1.40;1.23;;;7.70;99.90;;;;;;5049781;28;20729;-87
2022/01/31 12:05:30;;;;;;;2.10;1.90;;;7.80;99.90;;;;;;5041783;28;20265;-87
2022/01/31 12:08:04;;;;;;;3.30;2.22;;;6.80;99.90;;;;;;5047270;28;20184;-86
2022/01/31 12:10:46;;;;;;;2.17;1.50;;;6.90;99.90;;;;;;5056856;28;20696;-87
2022/01/31 12:13:36;;;;;;;1.40;1.25;;;6.50;99.90;;;;;;5051666;28;20232;-88
2022/01/31 12:16:12;;;;;;;1.90;1.52;;;6.70;99.90;;;;;;5043450;28;20214;-85
2022/01/31 12:18:56;;;;;;;5.05;1.73;;;7.30;99.90;;;;;;5048541;28;20177;-86
2022/01/31 12:22:00;;;;;;;2.70;1.30;;;6.80;99.90;;;;;;5055186;28;20211;-88
2022/01/31 12:24:46;;;;;;;2.83;1.20;;;6.90;99.90;;;;;;5044898;28;20215;-87
2022/01/31 12:27:15;;;;;;;2.13;1.20;;;6.90;99.90;;;;;;5047282;28;20212;-88
2022/01/31 12:29:47;;;;;;;4.50;1.85;;;7.20;99.90;;;;;;5050281;28;20194;-88
2022/01/31 12:32:19;;;;;;;1.35;1.13;;;7.00;99.90;;;;;;5049100;28;20228;-88
2022/01/31 12:34:58;;;;;;;2.05;1.40;;;7.00;99.90;;;;;;5047472;28;20202;-87
2022/01/31 12:37:50;;;;;;;2.05;1.50;;;7.00;99.90;;;;;;5038080;28;20186;-82
2022/01/31 12:40:19;;;;;;;5.13;1.67;;;7.10;99.90;;;;;;5046658;28;20189;-83
2022/01/31 12:45:47;;;;;;;2.85;1.35;;;7.30;99.90;;;;;;5041158;28;20182;-83
2022/01/31 12:48:22;;;;;;;2.15;1.67;;;6.70;99.90;;;;;;5042079;28;20669;-83
2022/01/31 12:50:50;;;;;;;1.85;1.45;;;6.60;99.90;;;;;;5057815;28;20200;-84
2022/01/31 12:53:22;;;;;;;3.33;1.50;;;6.90;99.90;;;;;;5048291;28;20206;-84
2022/01/31 12:56:20;;;;;;;5.38;1.70;;;7.00;99.90;;;;;;5066678;28;20210;-84
2022/01/31 12:58:50;;;;;;;2.15;1.40;;;6.70;99.90;;;;;;5058751;28;20216;-84
2022/01/31 13:01:28;;;;;;;1.80;1.20;;;7.20;99.90;;;;;;5040193;28;20181;-83
2022/01/31 13:04:03;;;;;;;3.83;1.83;;;6.80;99.90;;;;;;5032269;28;20228;-83
2022/01/31 13:06:39;;;;;;;4.78;1.70;;;7.20;99.90;;;;;;5057504;28;20223;-84
2022/01/31 13:09:21;;;;;;;1.50;1.40;;;6.20;99.90;;;;;;5049343;28;20568;-83
2022/01/31 13:11:54;;;;;;;4.88;1.52;;;6.60;99.90;;;;;;5038163;28;20578;-83
2022/01/31 13:14:27;;;;;;;1.85;1.40;;;6.80;99.90;;;;;;5047080;28;20229;-83
2022/01/31 13:17:15;;;;;;;1.48;1.38;;;6.50;99.90;;;;;;5042278;28;20310;-82
2022/01/31 13:19:53;;;;;;;4.05;2.10;;;6.60;99.90;;;;;;5034732;28;20698;-82
2022/01/31 13:22:34;;;;;;;4.63;2.50;;;6.80;99.90;;;;;;5043122;28;20196;-83
2022/01/31 13:25:06;;;;;;;5.15;2.28;;;6.60;99.90;;;;;;5049842;28;20325;-83
2022/01/31 13:27:39;;;;;;;1.75;1.30;;;6.50;99.90;;;;;;5051269;28;20249;-83